SARC/CNQ METAR and TAF weather

Enter ICAO airport designator
Station Type Date Time Source
SARC METAR 2019/12/08 19:00 UTC NOAA

SARC 081900Z 27008KT 9999 FEW035 BKN100 32/16 Q1008


Station Type Date Time Source
SARC Decoded METAR 2019/12/08 19:00 UTC NOAA

Corrientes Aero., Argentina (SARC) 27-27S 058-46W 62M
Dec 08, 2019 - 02:00 PM EST / 2019.12.08 1900 UTC
Wind: from the W (270 degrees) at 9 MPH (8 KT):0
Visibility: greater than 7 mile(s):0
Sky conditions: mostly cloudy
Temperature: 89 F (32 C)
Dew Point: 60 F (16 C)
Relative Humidity: 38%
Pressure (altimeter): 29.77 in. Hg (1008 hPa)
ob: SARC 081900Z 27008KT 9999 FEW035 BKN100 32/16 Q1008
cycle: 19

Station Type Date Time Source
SARC TAF 2019/12/07 22:55 UTC NOAA

TAF
AMD SARC 072155Z 0722/0818 09010KT 5000 FU NSC TX34/0818Z TN19/0809Z
BECMG 0724/0801 8000 NSC

Example: see airport list